sensor_id;sensor_type;location;lat;lon;timestamp;pressure;altitude;pressure_sealevel;temperature;humidity
71643;BME280;59438;45.014;39.006;2023-06-14T00:00:05;100496.38;;;19.21;77.60
71643;BME280;59438;45.014;39.006;2023-06-14T00:02:31;100498.19;;;19.20;77.48
71643;BME280;59438;45.014;39.006;2023-06-14T00:04:57;100485.88;;;19.19;77.50
71643;BME280;59438;45.014;39.006;2023-06-14T00:07:34;100499.91;;;19.21;78.41
71643;BME280;59438;45.014;39.006;2023-06-14T00:10:03;100498.09;;;19.22;77.82
71643;BME280;59438;45.014;39.006;2023-06-14T00:12:29;100497.25;;;19.21;77.56
71643;BME280;59438;45.014;39.006;2023-06-14T00:14:56;100504.97;;;19.24;77.64
71643;BME280;59438;45.014;39.006;2023-06-14T00:17:22;100502.22;;;19.26;77.68
71643;BME280;59438;45.014;39.006;2023-06-14T00:19:48;100510.94;;;19.28;77.66
71643;BME280;59438;45.014;39.006;2023-06-14T00:22:15;100509.09;;;19.28;77.68
71643;BME280;59438;45.014;39.006;2023-06-14T00:24:41;100509.00;;;19.30;77.66
71643;BME280;59438;45.014;39.006;2023-06-14T00:27:09;100504.63;;;19.29;77.84
71643;BME280;59438;45.014;39.006;2023-06-14T00:29:35;100513.34;;;19.31;77.70
71643;BME280;59438;45.014;39.006;2023-06-14T00:32:02;100516.00;;;19.31;77.84
71643;BME280;59438;45.014;39.006;2023-06-14T00:34:28;100518.66;;;19.31;77.98
71643;BME280;59438;45.014;39.006;2023-06-14T00:36:54;100522.31;;;19.30;77.89
71643;BME280;59438;45.014;39.006;2023-06-14T00:39:21;100525.81;;;19.30;77.57
71643;BME280;59438;45.014;39.006;2023-06-14T00:41:47;100521.47;;;19.29;77.95
71643;BME280;59438;45.014;39.006;2023-06-14T00:44:16;100534.53;;;19.32;78.66
71643;BME280;59438;45.014;39.006;2023-06-14T00:46:43;100533.34;;;19.37;78.21
71643;BME280;59438;45.014;39.006;2023-06-14T00:49:09;100532.50;;;19.36;78.14
71643;BME280;59438;45.014;39.006;2023-06-14T00:51:36;100532.50;;;19.36;78.00
71643;BME280;59438;45.014;39.006;2023-06-14T00:54:03;100526.53;;;19.32;77.92
71643;BME280;59438;45.014;39.006;2023-06-14T00:56:30;100533.34;;;19.37;78.32
71643;BME280;59438;45.014;39.006;2023-06-14T00:58:56;100536.00;;;19.37;78.14
71643;BME280;59438;45.014;39.006;2023-06-14T01:01:25;100540.38;;;19.38;78.20
71643;BME280;59438;45.014;39.006;2023-06-14T01:03:51;100533.22;;;19.38;77.99
71643;BME280;59438;45.014;39.006;2023-06-14T01:06:20;100529.56;;;19.39;78.18
71643;BME280;59438;45.014;39.006;2023-06-14T01:08:51;100525.97;;;19.40;78.37
71643;BME280;59438;45.014;39.006;2023-06-14T01:11:26;100530.31;;;19.41;78.53
71643;BME280;59438;45.014;39.006;2023-06-14T01:13:56;100530.31;;;19.41;78.13
71643;BME280;59438;45.014;39.006;2023-06-14T01:16:24;100520.53;;;19.42;77.93
71643;BME280;59438;45.014;39.006;2023-06-14T01:18:52;100538.09;;;19.44;77.96
71643;BME280;59438;45.014;39.006;2023-06-14T01:21:23;100531.78;;;19.45;78.23
71643;BME280;59438;45.014;39.006;2023-06-14T01:23:51;100529.09;;;19.45;78.06
71643;BME280;59438;45.014;39.006;2023-06-14T01:26:17;100530.81;;;19.46;77.87
71643;BME280;59438;45.014;39.006;2023-06-14T01:28:44;100531.66;;;19.47;78.11
71643;BME280;59438;45.014;39.006;2023-06-14T01:31:11;100526.34;;;19.47;78.03
71643;BME280;59438;45.014;39.006;2023-06-14T01:33:37;100520.28;;;19.45;78.11
71643;BME280;59438;45.014;39.006;2023-06-14T01:36:05;100511.66;;;19.41;78.08
71643;BME280;59438;45.014;39.006;2023-06-14T01:38:34;100519.31;;;19.46;78.18
71643;BME280;59438;45.014;39.006;2023-06-14T01:41:02;100522.94;;;19.45;78.71
71643;BME280;59438;45.014;39.006;2023-06-14T01:43:30;100522.94;;;19.45;78.58
71643;BME280;59438;45.014;39.006;2023-06-14T01:45:57;100519.31;;;19.46;78.81
71643;BME280;59438;45.014;39.006;2023-06-14T01:48:26;100519.44;;;19.44;79.31
71643;BME280;59438;45.014;39.006;2023-06-14T01:50:53;100511.91;;;19.38;79.28
71643;BME280;59438;45.014;39.006;2023-06-14T01:53:19;100512.75;;;19.39;79.37
71643;BME280;59438;45.014;39.006;2023-06-14T01:55:46;100513.00;;;19.36;79.72
71643;BME280;59438;45.014;39.006;2023-06-14T01:58:14;100513.34;;;19.31;80.29
71643;BME280;59438;45.014;39.006;2023-06-14T02:00:40;100508.28;;;19.28;79.87
71643;BME280;59438;45.014;39.006;2023-06-14T02:03:06;100515.53;;;19.26;79.98
71643;BME280;59438;45.014;39.006;2023-06-14T02:05:33;100492.75;;;19.22;80.20
71643;BME280;59438;45.014;39.006;2023-06-14T02:07:59;100492.97;;;19.19;80.44
71643;BME280;59438;45.014;39.006;2023-06-14T02:10:25;100486.81;;;19.18;80.47
71643;BME280;59438;45.014;39.006;2023-06-14T02:12:52;100483.31;;;19.18;80.85
71643;BME280;59438;45.014;39.006;2023-06-14T02:15:20;100478.72;;;19.20;81.14
71643;BME280;59438;45.014;39.006;2023-06-14T02:17:46;100483.94;;;19.21;80.88
71643;BME280;59438;45.014;39.006;2023-06-14T02:20:13;100479.44;;;19.22;80.98
71643;BME280;59438;45.014;39.006;2023-06-14T02:22:39;100470.47;;;19.23;81.12
71643;BME280;59438;45.014;39.006;2023-06-14T02:25:06;100461.53;;;19.24;81.02
71643;BME280;59438;45.014;39.006;2023-06-14T02:27:33;100463.22;;;19.25;80.90
71643;BME280;59438;45.014;39.006;2023-06-14T02:29:59;100468.22;;;19.29;81.07
71643;BME280;59438;45.014;39.006;2023-06-14T02:32:27;100457.56;;;19.29;81.26
71643;BME280;59438;45.014;39.006;2023-06-14T02:34:53;100459.13;;;19.32;80.96
71643;BME280;59438;45.014;39.006;2023-06-14T02:37:20;100454.41;;;19.36;81.16
71643;BME280;59438;45.014;39.006;2023-06-14T02:39:46;100454.16;;;19.39;81.27
71643;BME280;59438;45.014;39.006;2023-06-14T02:42:13;100455.75;;;19.41;81.24
71643;BME280;59438;45.014;39.006;2023-06-14T02:44:39;100449.34;;;19.44;81.31
71643;BME280;59438;45.014;39.006;2023-06-14T02:47:06;100446.44;;;19.47;81.17
71643;BME280;59438;45.014;39.006;2023-06-14T02:49:34;100441.09;;;19.47;81.38
71643;BME280;59438;45.014;39.006;2023-06-14T02:52:00;100448.72;;;19.51;81.05
71643;BME280;59438;45.014;39.006;2023-06-14T02:54:26;100437.84;;;19.55;81.19
71643;BME280;59438;45.014;39.006;2023-06-14T02:56:53;100434.91;;;19.58;81.14
71643;BME280;59438;45.014;39.006;2023-06-14T02:59:19;100439.03;;;19.62;81.40
71643;BME280;59438;45.014;39.006;2023-06-14T03:01:45;100444.03;;;19.66;81.51
71643;BME280;59438;45.014;39.006;2023-06-14T03:04:12;100447.19;;;19.71;81.35
71643;BME280;59438;45.014;39.006;2023-06-14T03:06:40;100442.59;;;19.73;81.60
71643;BME280;59438;45.014;39.006;2023-06-14T03:09:06;100441.47;;;19.76;81.16
71643;BME280;59438;45.014;39.006;2023-06-14T03:11:32;100439.44;;;19.80;81.23
71643;BME280;59438;45.014;39.006;2023-06-14T03:14:00;100441.84;;;19.83;81.68
71643;BME280;59438;45.014;39.006;2023-06-14T03:16:27;100438.81;;;19.87;81.14
71643;BME280;59438;45.014;39.006;2023-06-14T03:18:53;100443.91;;;19.90;80.92
71643;BME280;59438;45.014;39.006;2023-06-14T03:21:19;100439.16;;;19.94;81.31
71643;BME280;59438;45.014;39.006;2023-06-14T03:23:47;100439.63;;;19.99;81.44
71643;BME280;59438;45.014;39.006;2023-06-14T03:26:14;100433.94;;;20.04;81.02
71643;BME280;59438;45.014;39.006;2023-06-14T03:28:41;100439.75;;;20.09;81.00
71643;BME280;59438;45.014;39.006;2023-06-14T03:31:07;100445.41;;;20.16;80.95
71643;BME280;59438;45.014;39.006;2023-06-14T03:33:33;100446.75;;;20.21;81.08
71643;BME280;59438;45.014;39.006;2023-06-14T03:36:00;100437.41;;;20.27;80.95
71643;BME280;59438;45.014;39.006;2023-06-14T03:38:27;100439.69;;;20.31;80.84
71643;BME280;59438;45.014;39.006;2023-06-14T03:40:55;100436.63;;;20.36;80.85
71643;BME280;59438;45.014;39.006;2023-06-14T03:43:21;100442.56;;;20.40;80.71
71643;BME280;59438;45.014;39.006;2023-06-14T03:45:47;100449.34;;;20.44;80.63
71643;BME280;59438;45.014;39.006;2023-06-14T03:48:14;100455.41;;;20.46;80.47
71643;BME280;59438;45.014;39.006;2023-06-14T03:50:40;100461.22;;;20.51;80.35
71643;BME280;59438;45.014;39.006;2023-06-14T03:53:07;100469.94;;;20.53;80.42
71643;BME280;59438;45.014;39.006;2023-06-14T03:55:33;100469.66;;;20.56;80.28
71643;BME280;59438;45.014;39.006;2023-06-14T03:58:01;100477.31;;;20.61;80.60
71643;BME280;59438;45.014;39.006;2023-06-14T04:00:27;100480.69;;;20.63;80.37
71643;BME280;59438;45.014;39.006;2023-06-14T04:02:54;100493.69;;;20.67;80.29
71643;BME280;59438;45.014;39.006;2023-06-14T04:05:20;100488.09;;;20.70;80.36
71643;BME280;59438;45.014;39.006;2023-06-14T04:07:47;100493.03;;;20.75;80.27
71643;BME280;59438;45.014;39.006;2023-06-14T04:10:13;100486.47;;;20.79;80.43
71643;BME280;59438;45.014;39.006;2023-06-14T04:12:40;100492.16;;;20.86;80.09
71643;BME280;59438;45.014;39.006;2023-06-14T04:15:09;100495.28;;;20.91;80.27
71643;BME280;59438;45.014;39.006;2023-06-14T04:17:36;100506.66;;;20.93;80.12
71643;BME280;59438;45.014;39.006;2023-06-14T04:20:04;100515.59;;;21.03;79.95
71643;BME280;59438;45.014;39.006;2023-06-14T04:22:31;100523.09;;;21.09;79.85
71643;BME280;59438;45.014;39.006;2023-06-14T04:24:57;100520.88;;;21.14;79.61
71643;BME280;59438;45.014;39.006;2023-06-14T04:27:24;100529.34;;;21.20;79.54
71643;BME280;59438;45.014;39.006;2023-06-14T04:29:50;100528.84;;;21.26;79.35
71643;BME280;59438;45.014;39.006;2023-06-14T04:32:18;100540.84;;;21.31;79.28
71643;BME280;59438;45.014;39.006;2023-06-14T04:34:44;100536.06;;;21.35;79.04
71643;BME280;59438;45.014;39.006;2023-06-14T04:37:11;100539.44;;;21.37;78.93
71643;BME280;59438;45.014;39.006;2023-06-14T04:39:37;100531.94;;;21.42;78.25
71643;BME280;59438;45.014;39.006;2023-06-14T04:42:04;100533.59;;;21.43;78.10
71643;BME280;59438;45.014;39.006;2023-06-14T04:44:30;100536.16;;;21.45;77.98
71643;BME280;59438;45.014;39.006;2023-06-14T04:46:57;100543.78;;;21.49;77.89
71643;BME280;59438;45.014;39.006;2023-06-14T04:49:24;100550.53;;;21.53;78.21
71643;BME280;59438;45.014;39.006;2023-06-14T04:51:51;100546.38;;;21.61;78.26
71643;BME280;59438;45.014;39.006;2023-06-14T04:54:17;100558.50;;;21.65;78.09
71643;BME280;59438;45.014;39.006;2023-06-14T04:56:44;100566.00;;;21.71;77.79
71643;BME280;59438;45.014;39.006;2023-06-14T04:59:10;100573.22;;;21.80;77.98
71643;BME280;59438;45.014;39.006;2023-06-14T05:01:37;100575.34;;;21.86;77.98
71643;BME280;59438;45.014;39.006;2023-06-14T05:04:03;100576.53;;;21.93;77.72
71643;BME280;59438;45.014;39.006;2023-06-14T05:06:31;100580.34;;;22.01;77.67
71643;BME280;59438;45.014;39.006;2023-06-14T05:08:58;100580.69;;;22.07;77.23
71643;BME280;59438;45.014;39.006;2023-06-14T05:11:24;100576.59;;;22.13;77.21
71643;BME280;59438;45.014;39.006;2023-06-14T05:13:50;100587.25;;;22.24;77.12
71643;BME280;59438;45.014;39.006;2023-06-14T05:16:17;100583.63;;;22.35;76.66
71643;BME280;59438;45.014;39.006;2023-06-14T05:18:43;100580.69;;;22.48;76.89
71643;BME280;59438;45.014;39.006;2023-06-14T05:21:09;100579.59;;;22.60;75.80
71643;BME280;59438;45.014;39.006;2023-06-14T05:23:37;100585.38;;;22.75;76.00
71643;BME280;59438;45.014;39.006;2023-06-14T05:26:03;100589.50;;;22.89;75.58
71643;BME280;59438;45.014;39.006;2023-06-14T05:28:30;100594.16;;;22.97;74.92
71643;BME280;59438;45.014;39.006;2023-06-14T05:30:56;100597.81;;;22.96;74.81
71643;BME280;59438;45.014;39.006;2023-06-14T05:33:22;100599.78;;;22.93;74.53
71643;BME280;59438;45.014;39.006;2023-06-14T05:35:49;100602.75;;;22.90;74.75
71643;BME280;59438;45.014;39.006;2023-06-14T05:38:15;100603.59;;;22.91;74.85
71643;BME280;59438;45.014;39.006;2023-06-14T05:40:43;100602.75;;;22.90;74.59
71643;BME280;59438;45.014;39.006;2023-06-14T05:43:09;100615.47;;;22.98;74.11
71643;BME280;59438;45.014;39.006;2023-06-14T05:45:35;100614.06;;;23.04;74.34
71643;BME280;59438;45.014;39.006;2023-06-14T05:48:02;100617.59;;;23.14;74.50
71643;BME280;59438;45.014;39.006;2023-06-14T05:50:28;100622.13;;;23.23;74.81
71643;BME280;59438;45.014;39.006;2023-06-14T05:52:55;100621.00;;;23.26;74.95
71643;BME280;59438;45.014;39.006;2023-06-14T05:55:21;100627.19;;;23.26;75.13
71643;BME280;59438;45.014;39.006;2023-06-14T05:57:49;100631.72;;;23.26;75.33
71643;BME280;59438;45.014;39.006;2023-06-14T06:00:16;100624.81;;;23.23;75.20
71643;BME280;59438;45.014;39.006;2023-06-14T06:02:43;100635.22;;;23.26;74.86
71643;BME280;59438;45.014;39.006;2023-06-14T06:05:10;100628.59;;;23.30;75.10
71643;BME280;59438;45.014;39.006;2023-06-14T06:07:36;100631.84;;;23.34;74.40
71643;BME280;59438;45.014;39.006;2023-06-14T06:10:04;100625.78;;;23.42;73.95
71643;BME280;59438;45.014;39.006;2023-06-14T06:12:30;100633.97;;;23.50;73.69
71643;BME280;59438;45.014;39.006;2023-06-14T06:14:58;100639.59;;;23.57;73.51
71643;BME280;59438;45.014;39.006;2023-06-14T06:17:25;100637.06;;;23.65;73.42
71643;BME280;59438;45.014;39.006;2023-06-14T06:19:51;100640.13;;;23.70;73.28
71643;BME280;59438;45.014;39.006;2023-06-14T06:22:18;100638.63;;;23.77;73.38
71643;BME280;59438;45.014;39.006;2023-06-14T06:24:44;100641.00;;;23.80;73.04
71643;BME280;59438;45.014;39.006;2023-06-14T06:27:10;100648.63;;;23.85;72.96
71643;BME280;59438;45.014;39.006;2023-06-14T06:29:36;100645.50;;;23.89;73.13
71643;BME280;59438;45.014;39.006;2023-06-14T06:32:05;100650.56;;;23.92;72.66
71643;BME280;59438;45.014;39.006;2023-06-14T06:34:32;100648.44;;;23.96;72.60
71643;BME280;59438;45.014;39.006;2023-06-14T06:36:58;100651.84;;;23.98;72.51
71643;BME280;59438;45.014;39.006;2023-06-14T06:39:24;100650.00;;;23.99;72.79
71643;BME280;59438;45.014;39.006;2023-06-14T06:41:51;100651.69;;;24.00;72.42
71643;BME280;59438;45.014;39.006;2023-06-14T06:44:17;100642.81;;;23.99;72.31
71643;BME280;59438;45.014;39.006;2023-06-14T06:46:43;100645.03;;;24.04;72.00
71643;BME280;59438;45.014;39.006;2023-06-14T06:49:11;100643.63;;;24.09;71.57
71643;BME280;59438;45.014;39.006;2023-06-14T06:51:40;100638.50;;;24.16;72.09
71643;BME280;59438;45.014;39.006;2023-06-14T06:54:07;100647.50;;;24.25;71.67
71643;BME280;59438;45.014;39.006;2023-06-14T06:56:33;100651.47;;;24.30;71.99
71643;BME280;59438;45.014;39.006;2023-06-14T06:59:00;100640.81;;;24.39;72.02
71643;BME280;59438;45.014;39.006;2023-06-14T07:01:26;100640.50;;;24.51;71.61
71643;BME280;59438;45.014;39.006;2023-06-14T07:03:53;100644.41;;;24.67;71.82
71643;BME280;59438;45.014;39.006;2023-06-14T07:06:20;100649.09;;;24.83;70.77
71643;BME280;59438;45.014;39.006;2023-06-14T07:08:47;100655.78;;;24.97;70.55
71643;BME280;59438;45.014;39.006;2023-06-14T07:11:13;100648.66;;;25.05;69.82
71643;BME280;59438;45.014;39.006;2023-06-14T07:13:39;100637.84;;;25.15;70.35
71643;BME280;59438;45.014;39.006;2023-06-14T07:16:06;100644.50;;;25.21;69.76
71643;BME280;59438;45.014;39.006;2023-06-14T07:18:32;100638.66;;;25.25;69.03
71643;BME280;59438;45.014;39.006;2023-06-14T07:20:58;100638.31;;;25.28;69.17
71643;BME280;59438;45.014;39.006;2023-06-14T07:23:26;100641.41;;;25.33;69.43
71643;BME280;59438;45.014;39.006;2023-06-14T07:25:52;100645.47;;;25.38;69.32
71643;BME280;59438;45.014;39.006;2023-06-14T07:28:19;100640.66;;;25.41;68.81
71643;BME280;59438;45.014;39.006;2023-06-14T07:30:45;100642.53;;;25.49;68.44
71643;BME280;59438;45.014;39.006;2023-06-14T07:33:11;100648.16;;;25.56;68.63
71643;BME280;59438;45.014;39.006;2023-06-14T07:35:38;100641.16;;;25.63;68.53
71643;BME280;59438;45.014;39.006;2023-06-14T07:38:04;100638.50;;;25.71;68.44
71643;BME280;59438;45.014;39.006;2023-06-14T07:40:32;100634.03;;;25.80;67.77
71643;BME280;59438;45.014;39.006;2023-06-14T07:42:58;100639.34;;;25.89;68.00
71643;BME280;59438;45.014;39.006;2023-06-14T07:45:25;100626.97;;;25.97;67.52
71643;BME280;59438;45.014;39.006;2023-06-14T07:47:51;100624.31;;;26.05;67.20
71643;BME280;59438;45.014;39.006;2023-06-14T07:50:17;100625.34;;;26.12;66.40
71643;BME280;59438;45.014;39.006;2023-06-14T07:52:44;100618.34;;;26.19;66.31
71643;BME280;59438;45.014;39.006;2023-06-14T07:55:10;100628.47;;;26.25;65.43
71643;BME280;59438;45.014;39.006;2023-06-14T07:57:38;100627.97;;;26.30;64.60
71643;BME280;59438;45.014;39.006;2023-06-14T08:00:06;100628.47;;;26.33;65.50
71643;BME280;59438;45.014;39.006;2023-06-14T08:02:32;100624.78;;;26.34;65.47
71643;BME280;59438;45.014;39.006;2023-06-14T08:04:59;100629.34;;;26.34;65.23
71643;BME280;59438;45.014;39.006;2023-06-14T08:07:25;100629.34;;;26.34;65.55
71643;BME280;59438;45.014;39.006;2023-06-14T08:09:51;100618.22;;;26.37;65.24
71643;BME280;59438;45.014;39.006;2023-06-14T08:12:18;100617.06;;;26.40;65.34
71643;BME280;59438;45.014;39.006;2023-06-14T08:14:45;100617.28;;;26.46;64.64
71643;BME280;59438;45.014;39.006;2023-06-14T08:17:12;100620.84;;;26.55;65.72
71643;BME280;59438;45.014;39.006;2023-06-14T08:19:38;100620.22;;;26.61;65.86
71643;BME280;59438;45.014;39.006;2023-06-14T08:22:05;100614.50;;;26.64;65.52
71643;BME280;59438;45.014;39.006;2023-06-14T08:24:31;100613.66;;;26.64;65.32
71643;BME280;59438;45.014;39.006;2023-06-14T08:26:58;100623.59;;;26.63;65.74
71643;BME280;59438;45.014;39.006;2023-06-14T08:29:24;100622.75;;;26.63;65.53
71643;BME280;59438;45.014;39.006;2023-06-14T08:31:52;100616.50;;;26.62;65.38
71643;BME280;59438;45.014;39.006;2023-06-14T08:34:18;100616.50;;;26.62;64.99
71643;BME280;59438;45.014;39.006;2023-06-14T08:36:44;100616.50;;;26.62;65.29
71643;BME280;59438;45.014;39.006;2023-06-14T08:39:11;100611.13;;;26.62;65.16
71643;BME280;59438;45.014;39.006;2023-06-14T08:41:37;100607.44;;;26.63;65.47
71643;BME280;59438;45.014;39.006;2023-06-14T08:44:03;100613.34;;;26.67;65.28
71643;BME280;59438;45.014;39.006;2023-06-14T08:46:32;100615.38;;;26.73;64.99
71643;BME280;59438;45.014;39.006;2023-06-14T08:49:01;100618.75;;;26.75;64.43
71643;BME280;59438;45.014;39.006;2023-06-14T08:51:28;100619.91;;;26.81;64.43
71643;BME280;59438;45.014;39.006;2023-06-14T08:53:56;100620.78;;;26.81;64.80
71643;BME280;59438;45.014;39.006;2023-06-14T08:56:25;100621.09;;;26.78;64.35
71643;BME280;59438;45.014;39.006;2023-06-14T08:58:52;100623.28;;;26.83;64.78
71643;BME280;59438;45.014;39.006;2023-06-14T09:01:18;100621.13;;;26.86;64.79
71643;BME280;59438;45.014;39.006;2023-06-14T09:03:45;100628.69;;;26.91;65.02
71643;BME280;59438;45.014;39.006;2023-06-14T09:06:13;100613.88;;;26.95;63.11
71643;BME280;59438;45.014;39.006;2023-06-14T09:08:41;100615.91;;;27.01;64.31
71643;BME280;59438;45.014;39.006;2023-06-14T09:11:08;100616.59;;;27.03;63.34
71643;BME280;59438;45.014;39.006;2023-06-14T09:13:34;100611.03;;;27.05;63.81
71643;BME280;59438;45.014;39.006;2023-06-14T09:16:01;100602.13;;;27.04;63.67
71643;BME280;59438;45.014;39.006;2023-06-14T09:18:34;100602.44;;;27.09;62.76
71643;BME280;59438;45.014;39.006;2023-06-14T09:21:01;100601.63;;;27.09;63.77
71643;BME280;59438;45.014;39.006;2023-06-14T09:23:29;100605.50;;;27.06;63.04
71643;BME280;59438;45.014;39.006;2023-06-14T09:25:55;100597.72;;;27.03;63.72
71643;BME280;59438;45.014;39.006;2023-06-14T09:31:11;100587.47;;;27.07;63.97
71643;BME280;59438;45.014;39.006;2023-06-14T09:33:39;100592.69;;;27.08;63.42
71643;BME280;59438;45.014;39.006;2023-06-14T09:36:11;100581.75;;;27.10;62.50
71643;BME280;59438;45.014;39.006;2023-06-14T09:38:41;100579.72;;;27.12;62.79
71643;BME280;59438;45.014;39.006;2023-06-14T09:41:07;100577.34;;;27.17;63.02
71643;BME280;59438;45.014;39.006;2023-06-14T09:43:34;100574.16;;;27.22;63.03
71643;BME280;59438;45.014;39.006;2023-06-14T09:46:00;100568.13;;;27.28;62.42
71643;BME280;59438;45.014;39.006;2023-06-14T09:48:27;100569.97;;;27.36;62.86
71643;BME280;59438;45.014;39.006;2023-06-14T09:50:55;100567.63;;;27.41;62.40
71643;BME280;59438;45.014;39.006;2023-06-14T09:53:24;100574.53;;;27.43;62.42
71643;BME280;59438;45.014;39.006;2023-06-14T09:55:55;100577.06;;;27.45;61.33
71643;BME280;59438;45.014;39.006;2023-06-14T09:58:26;100581.78;;;27.43;61.63
71643;BME280;59438;45.014;39.006;2023-06-14T10:00:56;100594.59;;;27.41;61.80
71643;BME280;59438;45.014;39.006;2023-06-14T10:03:27;100584.97;;;27.38;61.82
71643;BME280;59438;45.014;39.006;2023-06-14T10:05:55;100582.78;;;27.33;61.83
71643;BME280;59438;45.014;39.006;2023-06-14T10:08:25;100587.84;;;27.37;61.86
71643;BME280;59438;45.014;39.006;2023-06-14T10:10:55;100600.47;;;27.44;62.55
71643;BME280;59438;45.014;39.006;2023-06-14T10:13:22;100596.94;;;27.52;62.57
71643;BME280;59438;45.014;39.006;2023-06-14T10:15:55;100592.19;;;27.62;61.69
71643;BME280;59438;45.014;39.006;2023-06-14T10:18:31;100594.22;;;27.68;60.71
71643;BME280;59438;45.014;39.006;2023-06-14T10:21:05;100586.63;;;27.72;60.45
71643;BME280;59438;45.014;39.006;2023-06-14T10:23:38;100591.81;;;27.73;61.23
71643;BME280;59438;45.014;39.006;2023-06-14T10:26:08;100574.28;;;27.78;59.85
71643;BME280;59438;45.014;39.006;2023-06-14T10:28:37;100572.63;;;27.77;58.99
71643;BME280;59438;45.014;39.006;2023-06-14T10:31:05;100586.78;;;27.79;59.65
71643;BME280;59438;45.014;39.006;2023-06-14T10:33:32;100577.19;;;27.76;60.14
71643;BME280;59438;45.014;39.006;2023-06-14T10:36:27;100572.25;;;27.80;60.37
71643;BME280;59438;45.014;39.006;2023-06-14T10:38:58;100580.88;;;27.75;59.97
71643;BME280;59438;45.014;39.006;2023-06-14T10:41:26;100571.09;;;27.82;60.73
71643;BME280;59438;45.014;39.006;2023-06-14T10:43:52;100575.47;;;27.75;60.41
71643;BME280;59438;45.014;39.006;2023-06-14T10:46:36;100579.00;;;27.76;60.16
71643;BME280;59438;45.014;39.006;2023-06-14T10:49:02;100585.06;;;27.78;60.56
71643;BME280;59438;45.014;39.006;2023-06-14T10:51:30;100566.03;;;27.79;59.73
71643;BME280;59438;45.014;39.006;2023-06-14T10:54:11;100565.69;;;27.82;59.02
71643;BME280;59438;45.014;39.006;2023-06-14T10:56:46;100574.47;;;27.84;58.79
71643;BME280;59438;45.014;39.006;2023-06-14T11:02:02;100569.56;;;27.88;59.47
71643;BME280;59438;45.014;39.006;2023-06-14T11:07:42;100567.34;;;28.00;59.09
71643;BME280;59438;45.014;39.006;2023-06-14T11:10:25;100566.16;;;28.02;57.87
71643;BME280;59438;45.014;39.006;2023-06-14T11:12:55;100577.13;;;28.09;59.03
71643;BME280;59438;45.014;39.006;2023-06-14T11:15:28;100576.28;;;28.00;58.75
71643;BME280;59438;45.014;39.006;2023-06-14T11:18:13;100583.69;;;27.98;58.14
71643;BME280;59438;45.014;39.006;2023-06-14T11:20:40;100579.88;;;27.92;59.30
71643;BME280;59438;45.014;39.006;2023-06-14T11:23:06;100579.19;;;27.90;59.84
71643;BME280;59438;45.014;39.006;2023-06-14T11:25:32;100588.13;;;27.91;59.40
71643;BME280;59438;45.014;39.006;2023-06-14T11:28:00;100583.72;;;27.90;60.24
71643;BME280;59438;45.014;39.006;2023-06-14T11:30:27;100590.66;;;27.92;59.70
71643;BME280;59438;45.014;39.006;2023-06-14T11:35:38;100588.28;;;27.89;58.47
71643;BME280;59438;45.014;39.006;2023-06-14T11:38:04;100581.53;;;27.85;58.23
71643;BME280;59438;45.014;39.006;2023-06-14T11:40:31;100584.25;;;27.77;57.11
71643;BME280;59438;45.014;39.006;2023-06-14T11:43:02;100588.66;;;27.70;57.25
71643;BME280;59438;45.014;39.006;2023-06-14T11:45:29;100584.44;;;27.59;57.50
71643;BME280;59438;45.014;39.006;2023-06-14T11:47:56;100580.91;;;27.50;57.87
71643;BME280;59438;45.014;39.006;2023-06-14T11:50:41;100585.16;;;27.45;57.07
71643;BME280;59438;45.014;39.006;2023-06-14T11:53:08;100578.56;;;27.31;58.16
71643;BME280;59438;45.014;39.006;2023-06-14T11:55:36;100584.94;;;27.22;58.72
71643;BME280;59438;45.014;39.006;2023-06-14T11:58:04;100579.53;;;27.13;59.08
71643;BME280;59438;45.014;39.006;2023-06-14T12:00:31;100587.63;;;27.05;59.93
71643;BME280;59438;45.014;39.006;2023-06-14T12:02:57;100585.94;;;26.96;60.33
71643;BME280;59438;45.014;39.006;2023-06-14T12:05:25;100585.94;;;26.88;62.39
71643;BME280;59438;45.014;39.006;2023-06-14T12:07:58;100595.19;;;26.85;62.45
71643;BME280;59438;45.014;39.006;2023-06-14T12:10:24;100591.97;;;26.82;62.27
71643;BME280;59438;45.014;39.006;2023-06-14T12:12:51;100577.16;;;26.78;62.51
71643;BME280;59438;45.014;39.006;2023-06-14T12:15:18;100583.38;;;26.78;62.06
71643;BME280;59438;45.014;39.006;2023-06-14T12:17:45;100577.69;;;26.81;62.93
71643;BME280;59438;45.014;39.006;2023-06-14T12:20:13;100572.59;;;26.78;63.21
71643;BME280;59438;45.014;39.006;2023-06-14T12:22:46;100568.56;;;26.82;62.96
71643;BME280;59438;45.014;39.006;2023-06-14T12:25:23;100565.03;;;26.82;63.22
71643;BME280;59438;45.014;39.006;2023-06-14T12:30:36;100575.28;;;26.78;62.76
71643;BME280;59438;45.014;39.006;2023-06-14T12:33:21;100579.84;;;26.78;62.49
71643;BME280;59438;45.014;39.006;2023-06-14T12:35:48;100573.75;;;26.67;62.53
71643;BME280;59438;45.014;39.006;2023-06-14T12:41:00;100561.22;;;26.50;63.28
71643;BME280;59438;45.014;39.006;2023-06-14T12:43:27;100561.88;;;26.44;63.44
71643;BME280;59438;45.014;39.006;2023-06-14T12:45:54;100557.81;;;26.40;63.63
71643;BME280;59438;45.014;39.006;2023-06-14T12:48:21;100548.75;;;26.41;63.55
71643;BME280;59438;45.014;39.006;2023-06-14T12:50:48;100554.97;;;26.41;63.04
71643;BME280;59438;45.014;39.006;2023-06-14T12:53:14;100541.66;;;26.40;62.57
71643;BME280;59438;45.014;39.006;2023-06-14T12:55:40;100553.13;;;26.42;63.28
71643;BME280;59438;45.014;39.006;2023-06-14T13:00:52;100549.75;;;26.40;63.16